sensor_id;sensor_type;location;lat;lon;timestamp;pressure;altitude;pressure_sealevel;temperature;humidity
66524;BME280;53350;52.210;5.160;2023-02-04T00:01:50;103300.44;;;10.56;67.49
66524;BME280;53350;52.210;5.160;2023-02-04T00:04:16;103313.22;;;10.53;67.62
66524;BME280;53350;52.210;5.160;2023-02-04T00:06:43;103307.94;;;10.48;67.88
66524;BME280;53350;52.210;5.160;2023-02-04T00:09:09;103316.44;;;10.46;67.92
66524;BME280;53350;52.210;5.160;2023-02-04T00:11:36;103305.16;;;10.40;68.11
66524;BME280;53350;52.210;5.160;2023-02-04T00:14:03;103314.53;;;10.38;68.38
66524;BME280;53350;52.210;5.160;2023-02-04T00:16:29;103318.66;;;10.33;68.46
66524;BME280;53350;52.210;5.160;2023-02-04T00:18:57;103326.34;;;10.32;68.46
66524;BME280;53350;52.210;5.160;2023-02-04T00:21:24;103328.88;;;10.30;68.62
66524;BME280;53350;52.210;5.160;2023-02-04T00:23:50;103329.63;;;10.26;69.01
66524;BME280;53350;52.210;5.160;2023-02-04T00:26:17;103338.03;;;10.20;69.15
66524;BME280;53350;52.210;5.160;2023-02-04T00:28:43;103331.97;;;10.18;69.55
66524;BME280;53350;52.210;5.160;2023-02-04T00:31:09;103331.88;;;10.15;69.70
66524;BME280;53350;52.210;5.160;2023-02-04T00:33:36;103337.81;;;10.13;69.89
66524;BME280;53350;52.210;5.160;2023-02-04T00:36:04;103339.50;;;10.12;70.04
66524;BME280;53350;52.210;5.160;2023-02-04T00:38:31;103335.19;;;10.11;70.20
66524;BME280;53350;52.210;5.160;2023-02-04T00:40:57;103342.03;;;10.10;70.31
66524;BME280;53350;52.210;5.160;2023-02-04T00:43:24;103351.47;;;10.10;70.52
66524;BME280;53350;52.210;5.160;2023-02-04T00:45:50;103346.41;;;10.13;70.54
66524;BME280;53350;52.210;5.160;2023-02-04T00:48:17;103356.72;;;10.13;70.55
66524;BME280;53350;52.210;5.160;2023-02-04T00:50:43;103358.44;;;10.13;70.80
66524;BME280;53350;52.210;5.160;2023-02-04T00:53:11;103364.44;;;10.13;70.89
66524;BME280;53350;52.210;5.160;2023-02-04T00:55:37;103356.72;;;10.13;70.96
66524;BME280;53350;52.210;5.160;2023-02-04T00:58:04;103357.50;;;10.10;70.87
66524;BME280;53350;52.210;5.160;2023-02-04T01:00:30;103357.44;;;10.09;71.19
66524;BME280;53350;52.210;5.160;2023-02-04T01:02:56;103364.25;;;10.07;71.22
66524;BME280;53350;52.210;5.160;2023-02-04T01:05:23;103370.19;;;10.04;71.43
66524;BME280;53350;52.210;5.160;2023-02-04T01:07:49;103365.84;;;10.03;71.58
66524;BME280;53350;52.210;5.160;2023-02-04T01:10:17;103374.38;;;10.01;71.73
66524;BME280;53350;52.210;5.160;2023-02-04T01:12:44;103368.25;;;9.97;71.79
66524;BME280;53350;52.210;5.160;2023-02-04T01:15:10;103365.63;;;9.96;72.10
66524;BME280;53350;52.210;5.160;2023-02-04T01:17:37;103366.50;;;9.96;71.97
66524;BME280;53350;52.210;5.160;2023-02-04T01:20:03;103384.47;;;9.95;72.14
66524;BME280;53350;52.210;5.160;2023-02-04T01:22:30;103385.31;;;9.94;72.27
66524;BME280;53350;52.210;5.160;2023-02-04T01:24:56;103387.88;;;9.94;72.55
66524;BME280;53350;52.210;5.160;2023-02-04T01:27:24;103387.00;;;9.93;72.55
66524;BME280;53350;52.210;5.160;2023-02-04T01:29:50;103389.47;;;9.90;72.59
66524;BME280;53350;52.210;5.160;2023-02-04T01:32:17;103393.75;;;9.89;72.81
66524;BME280;53350;52.210;5.160;2023-02-04T01:34:43;103395.44;;;9.89;72.89
66524;BME280;53350;52.210;5.160;2023-02-04T01:37:10;103395.41;;;9.87;72.87
66524;BME280;53350;52.210;5.160;2023-02-04T01:39:36;103405.66;;;9.86;72.89
66524;BME280;53350;52.210;5.160;2023-02-04T01:42:03;103402.97;;;9.83;73.08
66524;BME280;53350;52.210;5.160;2023-02-04T01:44:31;103408.06;;;9.81;73.02
66524;BME280;53350;52.210;5.160;2023-02-04T01:46:57;103411.41;;;9.79;73.55
66524;BME280;53350;52.210;5.160;2023-02-04T01:49:24;103414.75;;;9.76;73.70
66524;BME280;53350;52.210;5.160;2023-02-04T01:51:51;103419.91;;;9.76;73.62
66524;BME280;53350;52.210;5.160;2023-02-04T01:54:18;103419.03;;;9.75;73.27
66524;BME280;53350;52.210;5.160;2023-02-04T01:56:46;103425.91;;;9.75;73.86
66524;BME280;53350;52.210;5.160;2023-02-04T01:59:16;103430.19;;;9.76;74.10
66524;BME280;53350;52.210;5.160;2023-02-04T02:01:45;103428.56;;;9.78;73.94
66524;BME280;53350;52.210;5.160;2023-02-04T02:04:14;103436.34;;;9.80;74.29
66524;BME280;53350;52.210;5.160;2023-02-04T02:06:43;103432.16;;;9.83;74.33
66524;BME280;53350;52.210;5.160;2023-02-04T02:09:10;103428.78;;;9.84;74.19
66524;BME280;53350;52.210;5.160;2023-02-04T02:11:37;103431.34;;;9.84;74.26
66524;BME280;53350;52.210;5.160;2023-02-04T02:14:03;103434.91;;;9.88;74.24
66524;BME280;53350;52.210;5.160;2023-02-04T02:16:30;103440.88;;;9.87;74.29
66524;BME280;53350;52.210;5.160;2023-02-04T02:18:58;103433.19;;;9.88;74.27
66524;BME280;53350;52.210;5.160;2023-02-04T02:21:30;103434.06;;;9.89;74.37
66524;BME280;53350;52.210;5.160;2023-02-04T02:24:24;103441.00;;;9.91;74.16
66524;BME280;53350;52.210;5.160;2023-02-04T02:26:52;103436.81;;;9.94;74.19
66524;BME280;53350;52.210;5.160;2023-02-04T02:29:19;103439.31;;;9.92;74.26
66524;BME280;53350;52.210;5.160;2023-02-04T02:31:46;103447.03;;;9.92;74.39
66524;BME280;53350;52.210;5.160;2023-02-04T02:34:12;103444.44;;;9.92;74.52
66524;BME280;53350;52.210;5.160;2023-02-04T02:36:39;103444.53;;;9.94;74.62
66524;BME280;53350;52.210;5.160;2023-02-04T02:39:07;103442.00;;;9.95;74.11
66524;BME280;53350;52.210;5.160;2023-02-04T02:41:34;103450.63;;;9.97;73.62
66524;BME280;53350;52.210;5.160;2023-02-04T02:44:00;103446.34;;;9.98;74.35
66524;BME280;53350;52.210;5.160;2023-02-04T02:46:27;103448.06;;;9.97;74.05
66524;BME280;53350;52.210;5.160;2023-02-04T02:48:54;103450.59;;;9.96;74.17
66524;BME280;53350;52.210;5.160;2023-02-04T02:51:20;103439.38;;;9.94;74.08
66524;BME280;53350;52.210;5.160;2023-02-04T02:53:48;103448.75;;;9.91;74.29
66524;BME280;53350;52.210;5.160;2023-02-04T02:56:16;103449.59;;;9.92;74.39
66524;BME280;53350;52.210;5.160;2023-02-04T02:58:44;103456.47;;;9.91;74.47
66524;BME280;53350;52.210;5.160;2023-02-04T03:01:11;103455.66;;;9.92;74.49
66524;BME280;53350;52.210;5.160;2023-02-04T03:03:40;103460.84;;;9.94;74.52
66524;BME280;53350;52.210;5.160;2023-02-04T03:06:12;103466.91;;;9.96;74.38
66524;BME280;53350;52.210;5.160;2023-02-04T03:08:40;103454.94;;;9.97;74.28
66524;BME280;53350;52.210;5.160;2023-02-04T03:11:08;103462.66;;;9.97;74.16
66524;BME280;53350;52.210;5.160;2023-02-04T03:13:36;103447.19;;;9.97;74.13
66524;BME280;53350;52.210;5.160;2023-02-04T03:16:03;103448.06;;;9.97;74.08
66524;BME280;53350;52.210;5.160;2023-02-04T03:18:31;103448.06;;;9.97;73.86
66524;BME280;53350;52.210;5.160;2023-02-04T03:20:57;103450.59;;;9.96;73.88
66524;BME280;53350;52.210;5.160;2023-02-04T03:23:24;103442.81;;;9.94;73.91
66524;BME280;53350;52.210;5.160;2023-02-04T03:25:51;103448.78;;;9.93;73.60
66524;BME280;53350;52.210;5.160;2023-02-04T03:28:17;103444.41;;;9.90;73.52
66524;BME280;53350;52.210;5.160;2023-02-04T03:30:45;103442.63;;;9.88;73.58
66524;BME280;53350;52.210;5.160;2023-02-04T03:33:20;103445.97;;;9.85;73.64
66524;BME280;53350;52.210;5.160;2023-02-04T03:35:46;103446.69;;;9.81;73.50
66524;BME280;53350;52.210;5.160;2023-02-04T03:38:13;103449.16;;;9.78;73.46
66524;BME280;53350;52.210;5.160;2023-02-04T03:40:39;103449.94;;;9.75;73.58
66524;BME280;53350;52.210;5.160;2023-02-04T03:43:05;103455.81;;;9.71;73.25
66524;BME280;53350;52.210;5.160;2023-02-04T03:45:32;103458.06;;;9.62;72.53
66524;BME280;53350;52.210;5.160;2023-02-04T03:48:00;103467.13;;;9.51;73.21
66524;BME280;53350;52.210;5.160;2023-02-04T03:50:26;103471.22;;;9.46;73.27
66524;BME280;53350;52.210;5.160;2023-02-04T03:52:52;103480.59;;;9.44;73.16
66524;BME280;53350;52.210;5.160;2023-02-04T03:55:19;103482.28;;;9.43;73.05
66524;BME280;53350;52.210;5.160;2023-02-04T03:57:45;103477.97;;;9.42;72.89
66524;BME280;53350;52.210;5.160;2023-02-04T04:00:12;103476.16;;;9.39;72.76
66524;BME280;53350;52.210;5.160;2023-02-04T04:02:40;103478.72;;;9.39;72.68
66524;BME280;53350;52.210;5.160;2023-02-04T04:05:08;103474.25;;;9.34;72.77
66524;BME280;53350;52.210;5.160;2023-02-04T04:07:35;103470.75;;;9.32;72.83
66524;BME280;53350;52.210;5.160;2023-02-04T04:10:02;103469.88;;;9.31;72.90
66524;BME280;53350;52.210;5.160;2023-02-04T04:12:28;103473.28;;;9.30;72.81
66524;BME280;53350;52.210;5.160;2023-02-04T04:14:55;103469.75;;;9.28;72.62
66524;BME280;53350;52.210;5.160;2023-02-04T04:17:21;103476.50;;;9.25;72.71
66524;BME280;53350;52.210;5.160;2023-02-04T04:19:48;103481.53;;;9.21;72.44
66524;BME280;53350;52.210;5.160;2023-02-04T04:22:15;103482.28;;;9.19;72.62
66524;BME280;53350;52.210;5.160;2023-02-04T04:24:42;103489.03;;;9.15;72.45
66524;BME280;53350;52.210;5.160;2023-02-04T04:27:08;103488.09;;;9.13;72.68
66524;BME280;53350;52.210;5.160;2023-02-04T04:29:35;103486.28;;;9.11;72.62
66524;BME280;53350;52.210;5.160;2023-02-04T04:32:01;103482.78;;;9.09;72.49
66524;BME280;53350;52.210;5.160;2023-02-04T04:34:29;103492.19;;;9.08;72.57
66524;BME280;53350;52.210;5.160;2023-02-04T04:36:55;103487.81;;;9.05;72.39
66524;BME280;53350;52.210;5.160;2023-02-04T04:39:23;103489.38;;;9.02;72.29
66524;BME280;53350;52.210;5.160;2023-02-04T04:41:50;103484.03;;;8.96;72.36
66524;BME280;53350;52.210;5.160;2023-02-04T04:44:16;103491.56;;;8.91;72.56
66524;BME280;53350;52.210;5.160;2023-02-04T04:46:43;103494.09;;;8.90;72.24
66524;BME280;53350;52.210;5.160;2023-02-04T04:49:09;103493.25;;;8.91;72.64
66524;BME280;53350;52.210;5.160;2023-02-04T04:51:36;103488.88;;;8.88;72.52
66524;BME280;53350;52.210;5.160;2023-02-04T04:54:02;103488.69;;;8.83;72.55
66524;BME280;53350;52.210;5.160;2023-02-04T04:56:30;103487.88;;;8.84;72.72
66524;BME280;53350;52.210;5.160;2023-02-04T04:58:57;103493.91;;;8.85;73.00
66524;BME280;53350;52.210;5.160;2023-02-04T05:01:23;103481.97;;;8.87;72.99
66524;BME280;53350;52.210;5.160;2023-02-04T05:03:49;103482.09;;;8.90;73.01
66524;BME280;53350;52.210;5.160;2023-02-04T05:06:16;103493.31;;;8.92;73.14
66524;BME280;53350;52.210;5.160;2023-02-04T05:08:42;103494.25;;;8.94;73.29
66524;BME280;53350;52.210;5.160;2023-02-04T05:11:09;103491.63;;;8.93;73.03
66524;BME280;53350;52.210;5.160;2023-02-04T05:13:36;103494.94;;;8.90;73.37
66524;BME280;53350;52.210;5.160;2023-02-04T05:16:03;103491.50;;;8.90;73.43
66524;BME280;53350;52.210;5.160;2023-02-04T05:18:30;103494.09;;;8.90;73.34
66524;BME280;53350;52.210;5.160;2023-02-04T05:20:56;103497.47;;;8.88;73.21
66524;BME280;53350;52.210;5.160;2023-02-04T05:23:22;103487.19;;;8.88;73.45
66524;BME280;53350;52.210;5.160;2023-02-04T05:25:49;103491.50;;;8.90;73.45
66524;BME280;53350;52.210;5.160;2023-02-04T05:28:15;103485.47;;;8.89;73.35
66524;BME280;53350;52.210;5.160;2023-02-04T05:30:43;103484.66;;;8.90;73.31
66524;BME280;53350;52.210;5.160;2023-02-04T05:33:09;103488.19;;;8.92;73.82
66524;BME280;53350;52.210;5.160;2023-02-04T05:35:36;103494.19;;;8.93;73.61
66524;BME280;53350;52.210;5.160;2023-02-04T05:38:02;103490.75;;;8.92;74.01
66524;BME280;53350;52.210;5.160;2023-02-04T05:40:29;103495.00;;;8.92;73.97
66524;BME280;53350;52.210;5.160;2023-02-04T05:42:55;103496.75;;;8.93;73.73
66524;BME280;53350;52.210;5.160;2023-02-04T05:45:21;103511.22;;;8.91;73.64
66524;BME280;53350;52.210;5.160;2023-02-04T05:47:50;103523.09;;;8.87;74.07
66524;BME280;53350;52.210;5.160;2023-02-04T05:50:16;103525.63;;;8.85;73.83
66524;BME280;53350;52.210;5.160;2023-02-04T05:52:43;103519.47;;;8.82;74.20
66524;BME280;53350;52.210;5.160;2023-02-04T05:55:10;103535.69;;;8.79;74.21
66524;BME280;53350;52.210;5.160;2023-02-04T05:57:36;103545.00;;;8.77;74.34
66524;BME280;53350;52.210;5.160;2023-02-04T06:00:05;103539.06;;;8.78;74.37
66524;BME280;53350;52.210;5.160;2023-02-04T06:02:31;103530.53;;;8.79;74.49
66524;BME280;53350;52.210;5.160;2023-02-04T06:04:59;103536.59;;;8.81;74.77
66524;BME280;53350;52.210;5.160;2023-02-04T06:07:26;103541.78;;;8.83;74.59
66524;BME280;53350;52.210;5.160;2023-02-04T06:09:52;103546.06;;;8.82;74.55
66524;BME280;53350;52.210;5.160;2023-02-04T06:12:18;103553.84;;;8.84;74.74
66524;BME280;53350;52.210;5.160;2023-02-04T06:14:45;103550.47;;;8.85;74.65
66524;BME280;53350;52.210;5.160;2023-02-04T06:17:11;103547.06;;;8.86;74.83
66524;BME280;53350;52.210;5.160;2023-02-04T06:19:38;103550.56;;;8.88;74.92
66524;BME280;53350;52.210;5.160;2023-02-04T06:22:05;103557.59;;;8.92;74.84
66524;BME280;53350;52.210;5.160;2023-02-04T06:24:32;103552.50;;;8.94;74.88
66524;BME280;53350;52.210;5.160;2023-02-04T06:26:58;103562.91;;;8.97;74.80
66524;BME280;53350;52.210;5.160;2023-02-04T06:29:25;103569.72;;;8.96;74.62
66524;BME280;53350;52.210;5.160;2023-02-04T06:31:51;103577.44;;;8.96;74.81
66524;BME280;53350;52.210;5.160;2023-02-04T06:34:17;103580.84;;;8.95;74.35
66524;BME280;53350;52.210;5.160;2023-02-04T06:36:44;103585.03;;;8.93;74.28
66524;BME280;53350;52.210;5.160;2023-02-04T06:39:12;103589.25;;;8.91;74.57
66524;BME280;53350;52.210;5.160;2023-02-04T06:41:38;103585.78;;;8.91;74.84
66524;BME280;53350;52.210;5.160;2023-02-04T06:44:04;103596.97;;;8.91;74.84
66524;BME280;53350;52.210;5.160;2023-02-04T06:46:31;103603.78;;;8.91;74.49
66524;BME280;53350;52.210;5.160;2023-02-04T06:48:57;103605.53;;;8.92;74.79
66524;BME280;53350;52.210;5.160;2023-02-04T06:51:24;103603.88;;;8.92;74.59
66524;BME280;53350;52.210;5.160;2023-02-04T06:53:50;103603.03;;;8.93;74.72
66524;BME280;53350;52.210;5.160;2023-02-04T06:56:18;103614.25;;;8.95;74.70
66524;BME280;53350;52.210;5.160;2023-02-04T06:58:44;103615.13;;;8.96;74.47
66524;BME280;53350;52.210;5.160;2023-02-04T07:01:11;103608.22;;;8.95;74.67
66524;BME280;53350;52.210;5.160;2023-02-04T07:03:37;103615.00;;;8.93;74.79
66524;BME280;53350;52.210;5.160;2023-02-04T07:06:04;103619.28;;;8.92;74.75
66524;BME280;53350;52.210;5.160;2023-02-04T07:08:30;103610.78;;;8.95;74.68
66524;BME280;53350;52.210;5.160;2023-02-04T07:10:57;103608.22;;;8.95;74.83
66524;BME280;53350;52.210;5.160;2023-02-04T07:13:25;103614.25;;;8.95;74.90
66524;BME280;53350;52.210;5.160;2023-02-04T07:15:51;103615.19;;;8.97;74.69
66524;BME280;53350;52.210;5.160;2023-02-04T07:18:18;103616.00;;;8.96;74.45
66524;BME280;53350;52.210;5.160;2023-02-04T07:20:45;103626.28;;;8.96;74.44
66524;BME280;53350;52.210;5.160;2023-02-04T07:23:11;103628.84;;;8.96;74.94
66524;BME280;53350;52.210;5.160;2023-02-04T07:25:38;103633.19;;;8.97;74.89
66524;BME280;53350;52.210;5.160;2023-02-04T07:28:04;103633.25;;;8.99;74.58
66524;BME280;53350;52.210;5.160;2023-02-04T07:30:32;103632.44;;;9.00;75.05
66524;BME280;53350;52.210;5.160;2023-02-04T07:32:59;103628.22;;;9.02;75.00
66524;BME280;53350;52.210;5.160;2023-02-04T07:35:25;103635.19;;;9.04;74.72
66524;BME280;53350;52.210;5.160;2023-02-04T07:37:51;103643.81;;;9.07;74.73
66524;BME280;53350;52.210;5.160;2023-02-04T07:40:18;103648.16;;;9.08;74.89
66524;BME280;53350;52.210;5.160;2023-02-04T07:42:45;103640.50;;;9.09;75.03
66524;BME280;53350;52.210;5.160;2023-02-04T07:45:12;103653.41;;;9.11;75.05
66524;BME280;53350;52.210;5.160;2023-02-04T07:47:40;103651.72;;;9.11;75.17
66524;BME280;53350;52.210;5.160;2023-02-04T07:50:06;103649.28;;;9.14;75.14
66524;BME280;53350;52.210;5.160;2023-02-04T07:52:33;103651.91;;;9.16;75.20
66524;BME280;53350;52.210;5.160;2023-02-04T07:54:59;103653.72;;;9.18;75.08
66524;BME280;53350;52.210;5.160;2023-02-04T07:57:26;103653.78;;;9.20;75.34
66524;BME280;53350;52.210;5.160;2023-02-04T07:59:53;103660.75;;;9.22;75.47
66524;BME280;53350;52.210;5.160;2023-02-04T08:02:19;103659.97;;;9.25;75.00
66524;BME280;53350;52.210;5.160;2023-02-04T08:04:47;103666.81;;;9.25;75.37
66524;BME280;53350;52.210;5.160;2023-02-04T08:07:14;103660.81;;;9.24;75.09
66524;BME280;53350;52.210;5.160;2023-02-04T08:09:40;103673.72;;;9.26;75.24
66524;BME280;53350;52.210;5.160;2023-02-04T08:12:06;103679.84;;;9.29;75.63
66524;BME280;53350;52.210;5.160;2023-02-04T08:14:33;103686.88;;;9.33;75.63
66524;BME280;53350;52.210;5.160;2023-02-04T08:16:59;103691.28;;;9.36;75.64
66524;BME280;53350;52.210;5.160;2023-02-04T08:19:26;103689.72;;;9.41;75.65
66524;BME280;53350;52.210;5.160;2023-02-04T08:21:54;103689.03;;;9.45;75.76
66524;BME280;53350;52.210;5.160;2023-02-04T08:24:20;103695.19;;;9.49;75.72
66524;BME280;53350;52.210;5.160;2023-02-04T08:26:47;103692.78;;;9.53;75.79
66524;BME280;53350;52.210;5.160;2023-02-04T08:29:13;103693.75;;;9.57;75.83
66524;BME280;53350;52.210;5.160;2023-02-04T08:31:40;103693.88;;;9.60;75.82
66524;BME280;53350;52.210;5.160;2023-02-04T08:34:06;103694.88;;;9.64;75.99
66524;BME280;53350;52.210;5.160;2023-02-04T08:36:33;103701.00;;;9.67;76.03
66524;BME280;53350;52.210;5.160;2023-02-04T08:39:00;103701.16;;;9.70;76.03
66524;BME280;53350;52.210;5.160;2023-02-04T08:41:27;103711.69;;;9.77;76.29
66524;BME280;53350;52.210;5.160;2023-02-04T08:43:53;103704.13;;;9.81;76.43
66524;BME280;53350;52.210;5.160;2023-02-04T08:46:19;103703.47;;;9.87;76.19
66524;BME280;53350;52.210;5.160;2023-02-04T08:48:46;103703.69;;;9.93;76.10
66524;BME280;53350;52.210;5.160;2023-02-04T08:51:12;103715.91;;;9.99;76.33
66524;BME280;53350;52.210;5.160;2023-02-04T08:53:39;103705.78;;;10.03;76.33
66524;BME280;53350;52.210;5.160;2023-02-04T08:56:07;103703.44;;;10.09;76.27
66524;BME280;53350;52.210;5.160;2023-02-04T08:58:34;103704.47;;;10.15;75.82
66524;BME280;53350;52.210;5.160;2023-02-04T09:01:01;103705.53;;;10.20;76.18
66524;BME280;53350;52.210;5.160;2023-02-04T09:03:27;103719.41;;;10.25;76.04
66524;BME280;53350;52.210;5.160;2023-02-04T09:05:54;103715.22;;;10.27;76.13
66524;BME280;53350;52.210;5.160;2023-02-04T09:08:20;103718.75;;;10.31;76.10
66524;BME280;53350;52.210;5.160;2023-02-04T09:10:47;103712.06;;;10.34;76.05
66524;BME280;53350;52.210;5.160;2023-02-04T09:13:14;103704.38;;;10.36;75.97
66524;BME280;53350;52.210;5.160;2023-02-04T09:15:41;103714.81;;;10.39;75.83
66524;BME280;53350;52.210;5.160;2023-02-04T09:18:07;103732.88;;;10.40;75.99
66524;BME280;53350;52.210;5.160;2023-02-04T09:20:40;103726.97;;;10.43;76.10
66524;BME280;53350;52.210;5.160;2023-02-04T09:23:06;103723.59;;;10.46;75.62
66524;BME280;53350;52.210;5.160;2023-02-04T09:25:36;103724.66;;;10.51;76.15
66524;BME280;53350;52.210;5.160;2023-02-04T09:28:02;103723.94;;;10.55;75.92
66524;BME280;53350;52.210;5.160;2023-02-04T09:30:30;103719.69;;;10.57;75.84
66524;BME280;53350;52.210;5.160;2023-02-04T09:32:57;103723.28;;;10.60;75.58
66524;BME280;53350;52.210;5.160;2023-02-04T09:35:23;103722.50;;;10.63;75.74
66524;BME280;53350;52.210;5.160;2023-02-04T09:37:49;103724.34;;;10.67;75.79
66524;BME280;53350;52.210;5.160;2023-02-04T09:40:16;103722.81;;;10.72;75.66
66524;BME280;53350;52.210;5.160;2023-02-04T09:42:44;103734.13;;;10.77;75.74
66524;BME280;53350;52.210;5.160;2023-02-04T09:45:14;103736.84;;;10.81;75.57
66524;BME280;53350;52.210;5.160;2023-02-04T09:47:43;103737.00;;;10.85;75.44
66524;BME280;53350;52.210;5.160;2023-02-04T09:50:13;103738.03;;;10.92;75.36
66524;BME280;53350;52.210;5.160;2023-02-04T09:52:40;103736.41;;;10.94;75.02
66524;BME280;53350;52.210;5.160;2023-02-04T09:55:11;103737.38;;;10.98;75.01
66524;BME280;53350;52.210;5.160;2023-02-04T09:57:38;103740.94;;;11.01;74.36
66524;BME280;53350;52.210;5.160;2023-02-04T10:00:09;103744.41;;;11.02;74.65
66524;BME280;53350;52.210;5.160;2023-02-04T10:02:39;103736.66;;;11.02;74.43
66524;BME280;53350;52.210;5.160;2023-02-04T10:05:13;103754.03;;;11.07;74.45
66524;BME280;53350;52.210;5.160;2023-02-04T10:07:40;103752.50;;;11.12;74.08
66524;BME280;53350;52.210;5.160;2023-02-04T10:10:13;103756.84;;;11.15;74.24
66524;BME280;53350;52.210;5.160;2023-02-04T10:12:41;103752.53;;;11.14;73.70
66524;BME280;53350;52.210;5.160;2023-02-04T10:15:12;103752.59;;;11.16;73.56
66524;BME280;53350;52.210;5.160;2023-02-04T10:17:39;103754.41;;;11.18;73.22
66524;BME280;53350;52.210;5.160;2023-02-04T10:20:14;103758.84;;;11.24;73.33
66524;BME280;53350;52.210;5.160;2023-02-04T10:22:40;103754.81;;;11.32;73.01
66524;BME280;53350;52.210;5.160;2023-02-04T10:25:11;103761.06;;;11.39;72.61
66524;BME280;53350;52.210;5.160;2023-02-04T10:27:46;103751.66;;;11.41;72.46
66524;BME280;53350;52.210;5.160;2023-02-04T10:30:17;103762.97;;;11.44;72.14
66524;BME280;53350;52.210;5.160;2023-02-04T10:32:44;103763.06;;;11.47;71.66
66524;BME280;53350;52.210;5.160;2023-02-04T10:35:14;103750.94;;;11.45;71.32
66524;BME280;53350;52.210;5.160;2023-02-04T10:37:41;103760.75;;;11.57;71.41
66524;BME280;53350;52.210;5.160;2023-02-04T10:40:25;103766.94;;;11.62;71.60
66524;BME280;53350;52.210;5.160;2023-02-04T10:42:51;103762.69;;;11.64;70.69
66524;BME280;53350;52.210;5.160;2023-02-04T10:45:22;103756.75;;;11.66;70.70
66524;BME280;53350;52.210;5.160;2023-02-04T10:47:50;103756.06;;;11.72;70.02
66524;BME280;53350;52.210;5.160;2023-02-04T10:50:19;103763.13;;;11.78;69.42
66524;BME280;53350;52.210;5.160;2023-02-04T10:52:48;103761.34;;;11.77;69.33
66524;BME280;53350;52.210;5.160;2023-02-04T10:55:17;103760.56;;;11.79;68.96
66524;BME280;53350;52.210;5.160;2023-02-04T10:57:46;103761.47;;;11.81;69.04
66524;BME280;53350;52.210;5.160;2023-02-04T11:00:16;103762.44;;;11.83;68.69
66524;BME280;53350;52.210;5.160;2023-02-04T11:02:44;103758.16;;;11.86;68.23
66524;BME280;53350;52.210;5.160;2023-02-04T11:05:15;103763.38;;;11.87;67.86
66524;BME280;53350;52.210;5.160;2023-02-04T11:07:44;103763.41;;;11.89;68.08
66524;BME280;53350;52.210;5.160;2023-02-04T11:10:13;103753.03;;;11.87;67.59
66524;BME280;53350;52.210;5.160;2023-02-04T11:12:42;103766.09;;;11.92;67.33
66524;BME280;53350;52.210;5.160;2023-02-04T11:18:02;103765.19;;;11.90;67.11
66524;BME280;53350;52.210;5.160;2023-02-04T11:20:30;103762.50;;;11.87;67.94
66524;BME280;53350;52.210;5.160;2023-02-04T11:23:29;103754.63;;;11.82;67.89
66524;BME280;53350;52.210;5.160;2023-02-04T11:26:05;103750.47;;;11.87;67.00
66524;BME280;53350;52.210;5.160;2023-02-04T11:28:48;103749.69;;;11.90;67.59
66524;BME280;53350;52.210;5.160;2023-02-04T11:31:38;103761.72;;;11.89;67.74
66524;BME280;53350;52.210;5.160;2023-02-04T11:34:11;103750.66;;;11.93;66.95
66524;BME280;53350;52.210;5.160;2023-02-04T11:37:13;103753.50;;;12.01;66.17
66524;BME280;53350;52.210;5.160;2023-02-04T11:39:43;103752.59;;;12.00;65.99
66524;BME280;53350;52.210;5.160;2023-02-04T11:42:16;103751.03;;;12.06;65.27
66524;BME280;53350;52.210;5.160;2023-02-04T11:44:48;103744.22;;;12.09;64.58
66524;BME280;53350;52.210;5.160;2023-02-04T11:47:14;103745.94;;;12.09;64.64
66524;BME280;53350;52.210;5.160;2023-02-04T11:49:41;103745.09;;;12.08;64.86
66524;BME280;53350;52.210;5.160;2023-02-04T11:52:12;103741.59;;;12.08;64.66
66524;BME280;53350;52.210;5.160;2023-02-04T11:54:39;103742.47;;;12.07;64.44
66524;BME280;53350;52.210;5.160;2023-02-04T11:57:09;103740.69;;;12.06;64.58
66524;BME280;53350;52.210;5.160;2023-02-04T11:59:36;103747.63;;;12.07;64.76
66524;BME280;53350;52.210;5.160;2023-02-04T12:02:04;103741.72;;;12.11;64.96
66524;BME280;53350;52.210;5.160;2023-02-04T12:04:30;103751.25;;;12.13;65.26
66524;BME280;53350;52.210;5.160;2023-02-04T12:06:58;103747.84;;;12.14;65.24
66524;BME280;53350;52.210;5.160;2023-02-04T12:09:26;103750.50;;;12.17;65.33
66524;BME280;53350;52.210;5.160;2023-02-04T12:11:55;103752.22;;;12.17;65.17
66524;BME280;53350;52.210;5.160;2023-02-04T12:14:27;103755.50;;;12.11;65.46
66524;BME280;53350;52.210;5.160;2023-02-04T12:16:54;103757.38;;;12.17;65.15
66524;BME280;53350;52.210;5.160;2023-02-04T12:19:21;103763.28;;;12.13;64.82
66524;BME280;53350;52.210;5.160;2023-02-04T12:21:47;103763.13;;;12.07;65.11
66524;BME280;53350;52.210;5.160;2023-02-04T12:24:14;103762.16;;;12.03;65.24
66524;BME280;53350;52.210;5.160;2023-02-04T12:26:40;103756.91;;;12.00;65.41
66524;BME280;53350;52.210;5.160;2023-02-04T12:29:07;103765.50;;;12.00;65.49
66524;BME280;53350;52.210;5.160;2023-02-04T12:31:35;103768.06;;;11.99;65.79
66524;BME280;53350;52.210;5.160;2023-02-04T12:34:01;103760.47;;;12.04;65.98
66524;BME280;53350;52.210;5.160;2023-02-04T12:36:28;103762.38;;;12.11;65.63
66524;BME280;53350;52.210;5.160;2023-02-04T12:38:54;103759.03;;;12.15;65.35
66524;BME280;53350;52.210;5.160;2023-02-04T12:41:22;103758.34;;;12.21;64.95
66524;BME280;53350;52.210;5.160;2023-02-04T12:43:49;103760.13;;;12.23;64.85
66524;BME280;53350;52.210;5.160;2023-02-04T12:46:15;103763.56;;;12.24;65.22
66524;BME280;53350;52.210;5.160;2023-02-04T12:48:43;103760.97;;;12.22;65.67
66524;BME280;53350;52.210;5.160;2023-02-04T12:51:09;103764.41;;;12.21;64.91
66524;BME280;53350;52.210;5.160;2023-02-04T12:53:36;103759.31;;;12.24;64.64
66524;BME280;53350;52.210;5.160;2023-02-04T12:56:03;103758.41;;;12.24;64.21
66524;BME280;53350;52.210;5.160;2023-02-04T12:58:29;103761.94;;;12.26;64.10
66524;BME280;53350;52.210;5.160;2023-02-04T13:00:56;103755.94;;;12.27;64.38